Schillplate — ZDJJ8 — position and weather

sailwx.info

Track history (hours):
 
Tides and Currents Weather Stations Pressure Air Temp Water Temp Dewpoint Dewpoint Depression Visibility Wind Speed Wind Dir Waves Ship Positions

Schillplate

Last reported at 2015-Aug-02 09:34 UTC. Time now 2015-Aug-02 10:25 UTC.
Position N 53°42' E 005°36'.

Length 86 m; draft 3.9 m.

Type: Cargo ship. MMSI: 236111603.

Date/timePositionNaut miles runAvg speedWind from/ knotsBaromVisibWave heightAir tempDewpointWater temp
2015-Aug-02 09:34N 53°42' E 005°36'9 8.8
2015-Aug-02 08:34N 53°45' E 005°50'9 9.0
2015-Aug-02 07:33N 53°47' E 006°05'13 9.6
2015-Aug-02 06:10N 53°51' E 006°26'710.7
2015-Aug-02 05:33N 53°53' E 006°37'1712.1
2015-Aug-02 04:07N 53°57' E 007°06'711.9
2015-Aug-02 03:33N 53°58' E 007°17'1211.8
2015-Aug-02 02:33N 54°01' E 007°36'1111.5
2015-Aug-02 01:33N 54°02' E 007°56'1111.2
2015-Aug-02 00:33N 54°00' E 008°15'1010.4
2015-Aug-01 23:33N 53°58' E 008°32'8 8.1
2015-Aug-01 22:33N 53°53' E 008°43'8 8.5
2015-Aug-01 21:33N 53°51' E 008°57'9 4.4
2015-Aug-01 19:32N 53°55' E 009°10'0 0.3
2015-Aug-01 18:08N 53°55' E 009°11'0 0.0
2015-Aug-01 17:33N 53°55' E 009°11'15 7.4
2015-Aug-01 15:32N 54°08' E 009°21'1 0.9
2015-Aug-01 14:34N 54°09' E 009°22'5 5.5
2015-Aug-01 13:33N 54°11' E 009°30'8 8.2
2015-Aug-01 12:34N 54°17' E 009°39'8 8.0
2015-Aug-01 11:34N 54°22' E 009°51'6 5.8
2015-Aug-01 10:34N 54°21' E 010°01'5 4.6
2015-Aug-01 09:33N 54°22' E 010°09'5 5.1
2015-Aug-01 08:33N 54°26' E 010°13'1010.2
2015-Aug-01 07:33N 54°33' E 010°27'1210.4
2015-Aug-01 06:24N 54°35' E 010°48'810.1
2015-Aug-01 05:33N 54°36' E 011°02'1010.1
2015-Aug-01 04:33N 54°34' E 011°19'1010.4
2015-Aug-01 03:33N 54°29' E 011°35'1010.0
2015-Aug-01 02:33N 54°27' E 011°52'1010.4
2015-Aug-01 01:33N 54°28' E 012°10'6010.0
2015-Jul-31 19:33N 54°59' E 013°39'10 9.9
2015-Jul-31 18:33N 55°02' E 013°55'9 9.4
2015-Jul-31 17:33N 55°08' E 014°09'10 9.7
2015-Jul-31 16:34N 55°15' E 014°19'10 9.8
2015-Jul-31 15:34N 55°23' E 014°30'10 9.7
2015-Jul-31 14:33N 55°29' E 014°43'1010.0
2015-Jul-31 13:33N 55°35' E 014°58'1010.5
2015-Jul-31 12:33N 55°40' E 015°14'119 9.9
2015-Jul-31 00:32N 57°13' E 017°29'  
2015-Jul-28 15:32N 59°34' E 021°23'1111.2
2015-Jul-28 14:33N 59°34' E 021°45'1111.2
2015-Jul-28 13:33N 59°34' E 022°07'1111.3
2015-Jul-28 12:33N 59°35' E 022°29'1111.2
2015-Jul-28 11:33N 59°33' E 022°51'1111.4
2015-Jul-28 10:33N 59°30' E 023°13'1211.6
2015-Jul-28 09:33N 59°26' E 023°34'  
2015-Jul-24 15:33N 59°36' E 021°24'7 6.5
2015-Jul-24 14:30N 59°41' E 021°16'0 0.0
2015-Jul-24 13:30N 59°41' E 021°16'0 0.0
2015-Jul-24 12:27N 59°41' E 021°16'0 0.0
2015-Jul-24 11:12N 59°41' E 021°16'0 0.0
2015-Jul-24 10:24N 59°41' E 021°16'0 0.1
2015-Jul-24 09:33N 59°41' E 021°16'2 2.2
2015-Jul-24 08:33N 59°41' E 021°20'0 0.0
2015-Jul-24 07:33N 59°41' E 021°20'0 0.0
2015-Jul-24 06:24N 59°41' E 021°20'0 0.0
2015-Jul-24 05:34N 59°41' E 021°20'0 0.3
2015-Jul-24 04:33N 59°41' E 021°19'0 0.1
2015-Jul-24 03:33N 59°41' E 021°19'0 0.0
2015-Jul-24 02:33N 59°41' E 021°19'0 0.0
2015-Jul-24 01:33N 59°41' E 021°19'0 0.0
2015-Jul-24 00:33N 59°41' E 021°19'0 0.0
2015-Jul-23 23:30N 59°41' E 021°19'0 0.0
2015-Jul-23 22:33N 59°41' E 021°19'0 0.0
2015-Jul-23 21:33N 59°41' E 021°19'0 0.0
2015-Jul-23 20:33N 59°41' E 021°19'0 0.0
2015-Jul-23 19:33N 59°41' E 021°19'0 0.0
2015-Jul-23 18:33N 59°41' E 021°19'0 0.0
2015-Jul-23 17:33N 59°41' E 021°19'0 0.0
2015-Jul-23 16:33N 59°41' E 021°19'0 0.0
2015-Jul-23 15:33N 59°41' E 021°19'0 0.0
2015-Jul-23 14:33N 59°41' E 021°19'0 0.0
2015-Jul-23 13:33N 59°41' E 021°19'0 0.0
2015-Jul-23 12:33N 59°41' E 021°19'0 0.0
2015-Jul-23 11:33N 59°41' E 021°19'0 0.0
2015-Jul-23 10:30N 59°41' E 021°19'  
Track history (hours):
 
Tides and Currents Weather Stations Pressure Air Temp Water Temp Dewpoint Dewpoint Depression Visibility Wind Speed Wind Dir Waves Ship Positions

Schillplate

Last reported at 2015-Aug-02 09:34 UTC. Time now 2015-Aug-02 10:25 UTC.
Position N 53°42' E 005°36'.

Length 86 m; draft 3.9 m.

Type: Cargo ship. MMSI: 236111603.

Date/timePositionNaut miles runAvg speedWind from/ knotsBaromVisibWave heightAir tempDewpointWater temp
2015-Aug-02 09:34N 53°42' E 005°36'9 8.8
2015-Aug-02 08:34N 53°45' E 005°50'9 9.0
2015-Aug-02 07:33N 53°47' E 006°05'13 9.6
2015-Aug-02 06:10N 53°51' E 006°26'710.7
2015-Aug-02 05:33N 53°53' E 006°37'1712.1
2015-Aug-02 04:07N 53°57' E 007°06'711.9
2015-Aug-02 03:33N 53°58' E 007°17'1211.8
2015-Aug-02 02:33N 54°01' E 007°36'1111.5
2015-Aug-02 01:33N 54°02' E 007°56'1111.2
2015-Aug-02 00:33N 54°00' E 008°15'1010.4
2015-Aug-01 23:33N 53°58' E 008°32'8 8.1
2015-Aug-01 22:33N 53°53' E 008°43'8 8.5
2015-Aug-01 21:33N 53°51' E 008°57'9 4.4
2015-Aug-01 19:32N 53°55' E 009°10'0 0.3
2015-Aug-01 18:08N 53°55' E 009°11'0 0.0
2015-Aug-01 17:33N 53°55' E 009°11'15 7.4
2015-Aug-01 15:32N 54°08' E 009°21'1 0.9
2015-Aug-01 14:34N 54°09' E 009°22'5 5.5
2015-Aug-01 13:33N 54°11' E 009°30'8 8.2
2015-Aug-01 12:34N 54°17' E 009°39'8 8.0
2015-Aug-01 11:34N 54°22' E 009°51'6 5.8
2015-Aug-01 10:34N 54°21' E 010°01'5 4.6
2015-Aug-01 09:33N 54°22' E 010°09'5 5.1
2015-Aug-01 08:33N 54°26' E 010°13'1010.2
2015-Aug-01 07:33N 54°33' E 010°27'1210.4
2015-Aug-01 06:24N 54°35' E 010°48'810.1
2015-Aug-01 05:33N 54°36' E 011°02'1010.1
2015-Aug-01 04:33N 54°34' E 011°19'1010.4
2015-Aug-01 03:33N 54°29' E 011°35'1010.0
2015-Aug-01 02:33N 54°27' E 011°52'1010.4
2015-Aug-01 01:33N 54°28' E 012°10'6010.0
2015-Jul-31 19:33N 54°59' E 013°39'10 9.9
2015-Jul-31 18:33N 55°02' E 013°55'9 9.4
2015-Jul-31 17:33N 55°08' E 014°09'10 9.7
2015-Jul-31 16:34N 55°15' E 014°19'10 9.8
2015-Jul-31 15:34N 55°23' E 014°30'10 9.7
2015-Jul-31 14:33N 55°29' E 014°43'1010.0
2015-Jul-31 13:33N 55°35' E 014°58'1010.5
2015-Jul-31 12:33N 55°40' E 015°14'119 9.9
2015-Jul-31 00:32N 57°13' E 017°29'  
2015-Jul-28 15:32N 59°34' E 021°23'1111.2
2015-Jul-28 14:33N 59°34' E 021°45'1111.2
2015-Jul-28 13:33N 59°34' E 022°07'1111.3
2015-Jul-28 12:33N 59°35' E 022°29'1111.2
2015-Jul-28 11:33N 59°33' E 022°51'1111.4
2015-Jul-28 10:33N 59°30' E 023°13'1211.6
2015-Jul-28 09:33N 59°26' E 023°34'  
2015-Jul-24 15:33N 59°36' E 021°24'7 6.5
2015-Jul-24 14:30N 59°41' E 021°16'0 0.0
2015-Jul-24 13:30N 59°41' E 021°16'0 0.0
2015-Jul-24 12:27N 59°41' E 021°16'0 0.0
2015-Jul-24 11:12N 59°41' E 021°16'0 0.0
2015-Jul-24 10:24N 59°41' E 021°16'0 0.1
2015-Jul-24 09:33N 59°41' E 021°16'2 2.2
2015-Jul-24 08:33N 59°41' E 021°20'0 0.0
2015-Jul-24 07:33N 59°41' E 021°20'0 0.0
2015-Jul-24 06:24N 59°41' E 021°20'0 0.0
2015-Jul-24 05:34N 59°41' E 021°20'0 0.3
2015-Jul-24 04:33N 59°41' E 021°19'0 0.1
2015-Jul-24 03:33N 59°41' E 021°19'0 0.0
2015-Jul-24 02:33N 59°41' E 021°19'0 0.0
2015-Jul-24 01:33N 59°41' E 021°19'0 0.0
2015-Jul-24 00:33N 59°41' E 021°19'0 0.0
2015-Jul-23 23:30N 59°41' E 021°19'0 0.0
2015-Jul-23 22:33N 59°41' E 021°19'0 0.0
2015-Jul-23 21:33N 59°41' E 021°19'0 0.0
2015-Jul-23 20:33N 59°41' E 021°19'0 0.0
2015-Jul-23 19:33N 59°41' E 021°19'0 0.0
2015-Jul-23 18:33N 59°41' E 021°19'0 0.0
2015-Jul-23 17:33N 59°41' E 021°19'0 0.0
2015-Jul-23 16:33N 59°41' E 021°19'0 0.0
2015-Jul-23 15:33N 59°41' E 021°19'0 0.0
2015-Jul-23 14:33N 59°41' E 021°19'0 0.0
2015-Jul-23 13:33N 59°41' E 021°19'0 0.0
2015-Jul-23 12:33N 59°41' E 021°19'0 0.0
2015-Jul-23 11:33N 59°41' E 021°19'0 0.0
2015-Jul-23 10:30N 59°41' E 021°19'  

Dump ship's entire track history